createdAt,value
2022-10-20T00:06:56.461Z,11.43
2022-10-20T00:17:08.125Z,11.93
2022-10-20T00:27:23.516Z,11.50
2022-10-20T00:37:32.680Z,11.90
2022-10-20T00:47:51.744Z,10.85
2022-10-20T00:58:16.476Z,12.40
2022-10-20T01:08:30.261Z,12.90
2022-10-20T01:18:49.798Z,13.32
2022-10-20T01:29:12.428Z,10.98
2022-10-20T01:39:34.379Z,13.07
2022-10-20T01:49:47.175Z,11.75
2022-10-20T02:00:05.384Z,11.35
2022-10-20T02:10:22.047Z,10.68
2022-10-20T02:20:36.044Z,10.20
2022-10-20T03:06:49.619Z,9.70
2022-10-20T03:17:44.176Z,8.88
2022-10-20T03:27:54.887Z,8.38
2022-10-20T03:38:35.253Z,8.25
2022-10-20T03:49:22.446Z,7.70
2022-10-20T04:10:29.796Z,8.02
2022-10-20T04:20:44.336Z,7.63
2022-10-20T04:31:06.038Z,7.13
2022-10-20T04:41:37.321Z,8.05
2022-10-20T04:52:10.151Z,8.38
2022-10-20T05:02:53.360Z,8.93
2022-10-20T05:14:35.473Z,9.60
2022-10-20T05:37:15.017Z,9.25
2022-10-20T05:47:25.094Z,10.02
2022-10-20T06:21:23.564Z,9.68
2022-10-20T06:31:35.505Z,10.65
2022-10-20T06:41:48.258Z,10.90
2022-10-20T06:53:04.056Z,11.15
2022-10-20T07:15:24.917Z,12.45
2022-10-20T07:25:35.097Z,13.07
2022-10-20T07:36:13.688Z,13.82
2022-10-20T07:46:35.436Z,15.45
2022-10-20T07:56:47.182Z,14.80
2022-10-20T08:06:54.519Z,15.65
2022-10-20T08:17:14.812Z,16.80
2022-10-20T08:27:21.953Z,18.43
2022-10-20T08:37:33.048Z,17.42
2022-10-20T08:47:41.473Z,16.60
2022-10-20T08:57:51.853Z,17.30
2022-10-20T09:07:59.048Z,16.25
2022-10-20T09:18:13.242Z,18.65
2022-10-20T09:28:26.120Z,18.17
2022-10-20T09:38:39.476Z,18.15
2022-10-20T09:48:50.980Z,18.75
2022-10-20T09:59:02.445Z,17.60
2022-10-20T10:09:29.978Z,17.83
2022-10-20T10:19:38.944Z,18.48
2022-10-20T10:29:46.077Z,19.10
2022-10-20T10:39:56.169Z,18.73
2022-10-20T10:50:22.149Z,19.35
2022-10-20T11:00:51.897Z,20.52
2022-10-20T11:11:11.403Z,20.17
2022-10-20T11:21:31.976Z,20.23
2022-10-20T11:31:52.029Z,19.50
2022-10-20T11:42:08.638Z,19.25
2022-10-20T11:52:56.624Z,19.60
2022-10-20T12:03:37.613Z,18.60
2022-10-20T12:13:59.849Z,19.33
2022-10-20T12:24:34.174Z,19.85
2022-10-20T12:34:55.075Z,20.77
2022-10-20T12:45:08.468Z,21.13
2022-10-20T12:55:20.571Z,22.02
2022-10-20T13:05:52.285Z,21.98
2022-10-20T13:16:04.411Z,23.52
2022-10-20T13:26:23.466Z,22.48
2022-10-20T13:36:44.753Z,20.50
2022-10-20T13:47:07.214Z,22.88
2022-10-20T13:57:28.370Z,23.48
2022-10-20T14:07:46.454Z,22.65
2022-10-20T14:18:25.526Z,22.60
2022-10-20T14:28:38.307Z,22.40
2022-10-20T14:38:51.162Z,23.05
2022-10-20T14:49:01.600Z,23.63
2022-10-20T14:59:21.686Z,23.77
2022-10-20T15:09:35.623Z,24.48
2022-10-20T15:19:43.259Z,23.38
2022-10-20T16:28:10.655Z,32.63
2022-10-20T16:38:38.954Z,29.35
2022-10-20T16:48:58.414Z,26.48
2022-10-20T16:59:41.531Z,25.05
2022-10-20T17:10:35.616Z,25.23
2022-10-20T17:21:58.927Z,23.80
2022-10-20T17:57:02.800Z,31.23
2022-10-20T18:07:15.184Z,35.60
2022-10-20T18:17:22.635Z,36.22
2022-10-20T18:27:31.850Z,37.40
2022-10-20T18:37:39.356Z,37.05
2022-10-20T18:47:50.037Z,38.58
2022-10-20T18:58:00.048Z,40.10
2022-10-20T19:08:09.075Z,37.80
2022-10-20T19:18:16.933Z,41.83
2022-10-20T19:28:25.815Z,49.45
2022-10-20T19:38:33.341Z,41.80
2022-10-20T19:48:42.419Z,39.53
2022-10-20T19:58:50.715Z,34.35
2022-10-20T20:09:03.481Z,33.40
2022-10-20T20:19:11.946Z,33.63
2022-10-20T20:29:20.746Z,29.52
2022-10-20T20:39:27.829Z,27.88
2022-10-20T20:49:36.560Z,27.77
2022-10-20T20:59:43.619Z,27.85
2022-10-20T21:09:52.600Z,25.25
2022-10-20T21:20:00.756Z,27.08
2022-10-20T21:30:12.224Z,25.05
2022-10-20T21:40:19.386Z,22.77
2022-10-20T21:50:28.161Z,24.67
2022-10-20T22:00:35.245Z,23.92
2022-10-20T22:10:44.322Z,18.60
2022-10-20T22:20:51.493Z,13.63
2022-10-20T22:41:09.374Z,7.82
2022-10-20T22:51:18.742Z,6.68
2022-10-20T23:01:26.978Z,5.53
2022-10-20T23:11:36.421Z,4.07
2022-10-20T23:21:43.476Z,3.85
2022-10-20T23:31:52.170Z,3.30
2022-10-20T23:42:02.273Z,3.45
2022-10-20T23:52:15.658Z,3.28
